Time;durP1;ratioP1;P1;durP2;ratioP2;P2;SDS_P1;SDS_P2;PMS_P1;PMS_P2;Temp;Humidity;BMP_temperature;BMP_pressure;BME280_temperature;BME280_humidity;BME280_pressure;Samples;Min_cycle;Max_cycle;Signal;HPM_P1;HPM_P2
2021/12/03 00:02:27;;;;;;;15.83;14.83;;;;;;;;;;5063185;28;20445;-71
2021/12/03 00:04:58;;;;;;;10.87;9.60;;;;;;;;;;5059400;28;20809;-73
2021/12/03 00:07:25;;;;;;;18.97;17.40;;;;;;;;;;5057010;28;20458;-73
2021/12/03 00:09:57;;;;;;;12.17;11.03;;;;;;;;;;5069833;28;20457;-73
2021/12/03 00:12:25;;;;;;;19.13;17.60;;;;;;;;;;5065755;28;20527;-73
2021/12/03 00:14:57;;;;;;;12.73;11.83;;;;;;;;;;5077249;28;20468;-73
2021/12/03 00:17:26;;;;;;;13.80;12.50;;;;;;;;;;5078159;28;20457;-72
2021/12/03 00:19:53;;;;;;;12.13;11.43;;;;;;;;;;5059505;28;20461;-73
2021/12/03 00:22:21;;;;;;;19.53;17.70;;;;;;;;;;5065018;28;20456;-72
2021/12/03 00:25:13;;;;;;;13.13;12.13;;;;;;;;;;5074874;28;20942;-72
2021/12/03 00:27:45;;;;;;;20.03;18.23;;;;;;;;;;5069674;28;20846;-73
2021/12/03 00:30:14;;;;;;;12.50;11.50;;;;;;;;;;5058210;28;20551;-73
2021/12/03 00:32:41;;;;;;;22.80;12.47;;;;;;;;;;5060254;28;20441;-72
2021/12/03 00:35:10;;;;;;;21.83;19.83;;;;;;;;;;5071532;28;20457;-72
2021/12/03 00:37:38;;;;;;;15.83;14.60;;;;;;;;;;5058395;28;20450;-72
2021/12/03 00:40:06;;;;;;;23.07;20.60;;;;;;;;;;5066893;28;20757;-72
2021/12/03 00:42:34;;;;;;;19.13;17.63;;;;;;;;;;5063911;28;20452;-71
2021/12/03 00:45:09;;;;;;;30.00;25.53;;;;;;;;;;5065123;28;20514;-72
2021/12/03 00:47:37;;;;;;;31.97;28.37;;;;;;;;;;5057247;28;20548;-72
2021/12/03 00:50:05;;;;;;;28.40;24.77;;;;;;;;;;5073847;28;20448;-72
2021/12/03 00:52:35;;;;;;;37.37;27.80;;;;;;;;;;5062117;28;20453;-72
2021/12/03 00:55:03;;;;;;;25.67;22.97;;;;;;;;;;5065805;28;20476;-72
2021/12/03 00:57:31;;;;;;;33.30;26.93;;;;;;;;;;5070256;28;20475;-73
2021/12/03 00:59:58;;;;;;;40.80;31.00;;;;;;;;;;5076959;28;20462;-72
2021/12/03 01:02:27;;;;;;;28.70;25.60;;;;;;;;;;5074166;28;20456;-73
2021/12/03 01:04:54;;;;;;;38.00;28.23;;;;;;;;;;5061327;28;21133;-73
2021/12/03 01:07:21;;;;;;;28.27;25.43;;;;;;;;;;5059965;28;20804;-73
2021/12/03 01:09:50;;;;;;;29.63;26.27;;;;;;;;;;5076109;28;20547;-72
2021/12/03 01:12:17;;;;;;;29.47;26.10;;;;;;;;;;5056879;28;20211;-72
2021/12/03 01:14:56;;;;;;;35.73;27.43;;;;;;;;;;5075865;28;20453;-73
2021/12/03 01:17:23;;;;;;;40.80;30.77;;;;;;;;;;5076527;28;20753;-72
2021/12/03 01:19:53;;;;;;;37.77;29.20;;;;;;;;;;5075788;28;20784;-72
2021/12/03 01:22:23;;;;;;;25.93;23.33;;;;;;;;;;5075394;28;21014;-73
2021/12/03 01:24:54;;;;;;;27.77;25.03;;;;;;;;;;5075706;28;20455;-73
2021/12/03 01:27:21;;;;;;;23.30;21.20;;;;;;;;;;5071079;28;20488;-73
2021/12/03 01:29:48;;;;;;;23.50;21.37;;;;;;;;;;5056251;28;20746;-73
2021/12/03 01:32:16;;;;;;;30.77;26.20;;;;;;;;;;5056117;28;20541;-73
2021/12/03 01:34:47;;;;;;;28.83;24.43;;;;;;;;;;5063489;28;20453;-73
2021/12/03 01:37:19;;;;;;;33.07;28.63;;;;;;;;;;5075531;28;20467;-73
2021/12/03 01:39:46;;;;;;;43.23;30.63;;;;;;;;;;5055309;28;20460;-72
2021/12/03 01:42:13;;;;;;;35.83;29.00;;;;;;;;;;5056087;28;20544;-73
2021/12/03 01:44:41;;;;;;;38.00;29.40;;;;;;;;;;5054871;28;20457;-73
2021/12/03 01:47:09;;;;;;;38.80;30.83;;;;;;;;;;5055963;28;20574;-73
2021/12/03 01:49:37;;;;;;;37.90;28.90;;;;;;;;;;5055275;28;20489;-73
2021/12/03 01:52:04;;;;;;;50.83;34.97;;;;;;;;;;5061216;28;20843;-73
2021/12/03 01:54:32;;;;;;;41.67;31.20;;;;;;;;;;5071782;28;20448;-73
2021/12/03 01:57:00;;;;;;;66.35;40.78;;;;;;;;;;5060962;28;20517;-73
2021/12/03 01:59:27;;;;;;;39.30;29.63;;;;;;;;;;5072484;28;20267;-73
2021/12/03 02:01:54;;;;;;;59.30;36.23;;;;;;;;;;5076211;28;20555;-73
2021/12/03 02:04:23;;;;;;;57.47;36.85;;;;;;;;;;5072625;28;20457;-73
2021/12/03 02:06:50;;;;;;;57.05;35.50;;;;;;;;;;5055952;28;20638;-73
2021/12/03 02:09:17;;;;;;;34.67;28.27;;;;;;;;;;5055298;28;20234;-73
2021/12/03 02:11:45;;;;;;;40.70;29.83;;;;;;;;;;5067769;28;20445;-73
2021/12/03 02:14:12;;;;;;;66.03;37.53;;;;;;;;;;5074005;28;20487;-73
2021/12/03 02:16:44;;;;;;;63.00;37.50;;;;;;;;;;5078452;28;20853;-73
2021/12/03 02:19:11;;;;;;;53.13;34.58;;;;;;;;;;5079035;28;20514;-73
2021/12/03 02:21:42;;;;;;;51.30;34.40;;;;;;;;;;5076914;28;20215;-74
2021/12/03 02:24:09;;;;;;;46.93;32.20;;;;;;;;;;5058659;28;21017;-73
2021/12/03 02:26:37;;;;;;;50.60;32.60;;;;;;;;;;5059329;28;20738;-73
2021/12/03 02:29:06;;;;;;;50.42;31.48;;;;;;;;;;5058853;28;20489;-73
2021/12/03 02:31:34;;;;;;;37.57;29.37;;;;;;;;;;5062594;28;20255;-73
2021/12/03 02:34:04;;;;;;;48.90;33.90;;;;;;;;;;5078475;28;20453;-73
2021/12/03 02:36:33;;;;;;;48.38;33.42;;;;;;;;;;5058795;28;20899;-74
2021/12/03 02:39:02;;;;;;;26.50;23.87;;;;;;;;;;5058862;28;20215;-74
2021/12/03 02:41:29;;;;;;;28.97;25.83;;;;;;;;;;5058080;28;20468;-73
2021/12/03 02:43:57;;;;;;;26.67;24.07;;;;;;;;;;5058809;28;20858;-73
2021/12/03 02:46:25;;;;;;;26.40;23.90;;;;;;;;;;5058959;28;20461;-74
2021/12/03 02:48:54;;;;;;;31.23;28.03;;;;;;;;;;5063000;28;20551;-74
2021/12/03 02:51:21;;;;;;;16.17;15.13;;;;;;;;;;5059059;28;20453;-74
2021/12/03 02:53:48;;;;;;;23.97;21.73;;;;;;;;;;5059263;28;20477;-72
2021/12/03 02:56:16;;;;;;;31.10;22.50;;;;;;;;;;5060763;28;20460;-73
2021/12/03 02:58:43;;;;;;;22.87;20.77;;;;;;;;;;5077790;28;20522;-73
2021/12/03 03:01:11;;;;;;;25.50;23.00;;;;;;;;;;5078082;28;20453;-74
2021/12/03 03:03:39;;;;;;;27.73;25.10;;;;;;;;;;5078296;28;20737;-74
2021/12/03 03:06:08;;;;;;;24.67;22.23;;;;;;;;;;5079263;28;20453;-74
2021/12/03 03:08:35;;;;;;;36.13;29.53;;;;;;;;;;5066115;28;20550;-73
2021/12/03 03:11:05;;;;;;;26.77;24.03;;;;;;;;;;5057972;28;20457;-73
2021/12/03 03:13:36;;;;;;;15.00;14.00;;;;;;;;;;5071398;28;20523;-73
2021/12/03 03:16:10;;;;;;;15.03;13.53;;;;;;;;;;5068493;28;20869;-74
2021/12/03 03:18:39;;;;;;;12.57;11.63;;;;;;;;;;5074296;28;20783;-73
2021/12/03 03:21:07;;;;;;;20.40;18.77;;;;;;;;;;5077416;28;20961;-73
2021/12/03 03:23:37;;;;;;;20.30;18.70;;;;;;;;;;5078627;28;20797;-73
2021/12/03 03:26:05;;;;;;;18.07;16.80;;;;;;;;;;5077391;28;20457;-73
2021/12/03 03:28:32;;;;;;;21.47;19.00;;;;;;;;;;5077554;28;20542;-73
2021/12/03 03:31:00;;;;;;;27.03;24.23;;;;;;;;;;5074880;28;21585;-73
2021/12/03 03:33:28;;;;;;;31.43;27.37;;;;;;;;;;5069565;28;20555;-73
2021/12/03 03:36:01;;;;;;;19.50;17.87;;;;;;;;;;5076500;28;20487;-73
2021/12/03 03:38:28;;;;;;;15.48;14.25;;;;;;;;;;5077246;28;20891;-73
2021/12/03 03:40:55;;;;;;;24.27;22.15;;;;;;;;;;5077087;28;20210;-73
2021/12/03 03:43:22;;;;;;;15.47;14.37;;;;;;;;;;5077591;28;20261;-73
2021/12/03 03:45:51;;;;;;;22.67;20.87;;;;;;;;;;5060705;28;20519;-73
2021/12/03 03:48:20;;;;;;;14.10;13.20;;;;;;;;;;5057307;28;20485;-73
2021/12/03 03:50:47;;;;;;;19.23;17.90;;;;;;;;;;5057658;28;20472;-73
2021/12/03 03:53:17;;;;;;;16.53;15.20;;;;;;;;;;5061978;28;20507;-73
2021/12/03 03:55:45;;;;;;;25.37;23.23;;;;;;;;;;5057285;28;20457;-73
2021/12/03 03:58:13;;;;;;;25.53;23.40;;;;;;;;;;5057738;28;20446;-73
2021/12/03 04:00:41;;;;;;;26.00;23.60;;;;;;;;;;5073217;28;20819;-73
2021/12/03 04:03:10;;;;;;;24.20;22.07;;;;;;;;;;5077461;28;20437;-74
2021/12/03 04:05:39;;;;;;;39.80;29.67;;;;;;;;;;5077831;28;20471;-74
2021/12/03 04:08:06;;;;;;;29.38;26.17;;;;;;;;;;5069164;28;20203;-73
2021/12/03 04:10:34;;;;;;;34.60;29.30;;;;;;;;;;5072516;28;20217;-73
2021/12/03 04:13:01;;;;;;;30.57;27.07;;;;;;;;;;5076431;28;20457;-73
2021/12/03 04:15:28;;;;;;;57.20;37.10;;;;;;;;;;5077612;28;20594;-72
2021/12/03 04:17:55;;;;;;;67.03;38.90;;;;;;;;;;5077144;28;20888;-73
2021/12/03 04:20:23;;;;;;;48.40;33.90;;;;;;;;;;5077379;28;20750;-73
2021/12/03 04:22:51;;;;;;;29.93;26.60;;;;;;;;;;5071525;28;20466;-74
2021/12/03 04:25:20;;;;;;;30.53;27.00;;;;;;;;;;5056846;28;20457;-74
2021/12/03 04:27:51;;;;;;;27.53;24.77;;;;;;;;;;5056856;28;20490;-73
2021/12/03 04:30:21;;;;;;;29.77;26.20;;;;;;;;;;5064005;28;20732;-74
2021/12/03 04:32:48;;;;;;;29.30;26.17;;;;;;;;;;5056942;28;20469;-73
2021/12/03 04:35:17;;;;;;;27.77;24.87;;;;;;;;;;5056840;28;20598;-73
2021/12/03 04:37:47;;;;;;;45.30;31.60;;;;;;;;;;5060045;28;20763;-73
2021/12/03 04:40:17;;;;;;;36.90;29.47;;;;;;;;;;5076961;28;20457;-73
2021/12/03 04:42:45;;;;;;;23.53;15.63;;;;;;;;;;5057882;28;20522;-73
2021/12/03 04:45:13;;;;;;;31.13;28.00;;;;;;;;;;5057233;28;20472;-74
2021/12/03 04:47:41;;;;;;;16.73;15.23;;;;;;;;;;5056812;28;20449;-73
2021/12/03 04:50:09;;;;;;;27.47;24.80;;;;;;;;;;5056888;28;20489;-74
2021/12/03 04:52:36;;;;;;;25.23;22.60;;;;;;;;;;5057452;28;21196;-73
2021/12/03 04:55:08;;;;;;;34.97;28.67;;;;;;;;;;5069414;28;20488;-74
2021/12/03 04:57:37;;;;;;;20.17;18.53;;;;;;;;;;5075927;28;20449;-73
2021/12/03 05:00:05;;;;;;;17.80;16.37;;;;;;;;;;5076140;28;20457;-73
2021/12/03 05:02:32;;;;;;;13.30;12.10;;;;;;;;;;5076033;28;20779;-73
2021/12/03 05:05:03;;;;;;;13.57;12.30;;;;;;;;;;5075679;28;20452;-74
2021/12/03 05:07:41;;;;;;;13.80;12.60;;;;;;;;;;5076309;28;20538;-73
2021/12/03 05:10:11;;;;;;;14.37;13.27;;;;;;;;;;5076317;28;20492;-74
2021/12/03 05:13:01;;;;;;;27.97;25.33;;;;;;;;;;5075443;28;20463;-73
2021/12/03 05:15:29;;;;;;;18.10;16.80;;;;;;;;;;5076721;28;20464;-73
2021/12/03 05:17:56;;;;;;;28.13;23.70;;;;;;;;;;5077005;28;20578;-73
2021/12/03 05:20:23;;;;;;;11.87;10.80;;;;;;;;;;5076101;28;20736;-73
2021/12/03 05:22:51;;;;;;;8.60;7.80;;;;;;;;;;5076228;28;20525;-73
2021/12/03 05:25:19;;;;;;;8.47;7.87;;;;;;;;;;5075527;28;20456;-73
2021/12/03 05:27:47;;;;;;;16.10;10.30;;;;;;;;;;5075275;28;20475;-73
2021/12/03 05:30:14;;;;;;;9.63;8.67;;;;;;;;;;5075287;28;20522;-73
2021/12/03 05:32:41;;;;;;;10.17;8.37;;;;;;;;;;5074898;28;20475;-74
2021/12/03 05:35:09;;;;;;;12.97;11.67;;;;;;;;;;5074255;28;20517;-74
2021/12/03 05:37:42;;;;;;;9.53;8.67;;;;;;;;;;5069478;28;20503;-73
2021/12/03 05:40:11;;;;;;;9.70;8.80;;;;;;;;;;5055745;28;20465;-73
2021/12/03 05:42:38;;;;;;;8.23;6.23;;;;;;;;;;5056957;28;20675;-74
2021/12/03 05:45:13;;;;;;;9.70;6.70;;;;;;;;;;5056525;28;20458;-73
2021/12/03 05:47:40;;;;;;;8.30;7.50;;;;;;;;;;5055144;28;20510;-74
2021/12/03 05:50:09;;;;;;;12.03;10.57;;;;;;;;;;5057839;28;20515;-74
2021/12/03 05:52:36;;;;;;;9.57;5.80;;;;;;;;;;5058793;28;20490;-73
2021/12/03 05:55:03;;;;;;;7.00;6.00;;;;;;;;;;5058323;28;20460;-73
2021/12/03 05:57:31;;;;;;;8.37;7.63;;;;;;;;;;5057162;28;20548;-73
2021/12/03 06:00:00;;;;;;;10.17;7.00;;;;;;;;;;5058132;28;20457;-73
2021/12/03 06:02:29;;;;;;;4.90;4.40;;;;;;;;;;5057251;28;20568;-73
2021/12/03 06:04:59;;;;;;;12.83;6.80;;;;;;;;;;5056498;28;20449;-73
2021/12/03 06:07:26;;;;;;;7.40;5.50;;;;;;;;;;5056413;28;20569;-74
2021/12/03 06:09:53;;;;;;;9.00;8.30;;;;;;;;;;5056770;28;20843;-74
2021/12/03 06:12:21;;;;;;;9.10;7.90;;;;;;;;;;5058090;28;20449;-74
2021/12/03 06:14:48;;;;;;;8.77;7.97;;;;;;;;;;5057337;28;20460;-73
2021/12/03 06:17:16;;;;;;;10.03;9.27;;;;;;;;;;5058269;28;20453;-74
2021/12/03 06:19:48;;;;;;;6.03;5.57;;;;;;;;;;5061300;28;20446;-74
2021/12/03 06:22:15;;;;;;;6.97;6.37;;;;;;;;;;5056223;28;20878;-74
2021/12/03 06:24:43;;;;;;;6.60;6.10;;;;;;;;;;5057488;28;20876;-74
2021/12/03 06:27:10;;;;;;;9.23;8.43;;;;;;;;;;5056944;28;20449;-74
2021/12/03 06:29:37;;;;;;;7.90;6.70;;;;;;;;;;5061611;28;20521;-74
2021/12/03 06:32:05;;;;;;;10.37;8.10;;;;;;;;;;5056491;28;20455;-74
2021/12/03 06:34:32;;;;;;;6.17;4.73;;;;;;;;;;5057339;28;20568;-74
2021/12/03 06:37:04;;;;;;;6.23;5.63;;;;;;;;;;5072325;28;20495;-75
2021/12/03 06:39:40;;;;;;;8.80;7.87;;;;;;;;;;5075713;28;20448;-74
2021/12/03 06:42:08;;;;;;;6.00;5.50;;;;;;;;;;5074140;28;20459;-74
2021/12/03 06:44:35;;;;;;;4.27;3.87;;;;;;;;;;5060591;28;20460;-75
2021/12/03 06:47:03;;;;;;;5.50;4.63;;;;;;;;;;5055414;28;20523;-74
2021/12/03 06:49:33;;;;;;;5.93;4.90;;;;;;;;;;5063458;28;20480;-75
2021/12/03 06:52:05;;;;;;;6.37;5.50;;;;;;;;;;5076433;28;20589;-75
2021/12/03 06:57:14;;;;;;;5.70;5.27;;;;;;;;;;5066306;28;20450;-76
2021/12/03 06:59:41;;;;;;;7.23;6.57;;;;;;;;;;5058071;28;20457;-74
2021/12/03 07:02:12;;;;;;;4.43;4.03;;;;;;;;;;5059878;28;20533;-74
2021/12/03 07:04:40;;;;;;;3.30;2.60;;;;;;;;;;5075835;28;20554;-74
2021/12/03 07:07:13;;;;;;;6.90;5.50;;;;;;;;;;5076216;28;20499;-74
2021/12/03 07:09:44;;;;;;;3.57;3.27;;;;;;;;;;5076894;28;20995;-74
2021/12/03 07:12:13;;;;;;;8.60;8.00;;;;;;;;;;5062359;28;20453;-74
2021/12/03 07:14:45;;;;;;;16.20;14.80;;;;;;;;;;5075038;28;20910;-74
2021/12/03 07:17:21;;;;;;;7.43;5.80;;;;;;;;;;5066842;28;20740;-75
2021/12/03 07:19:57;;;;;;;9.30;7.13;;;;;;;;;;5056068;28;20463;-73
2021/12/03 07:22:28;;;;;;;9.60;8.20;;;;;;;;;;5057105;28;20564;-75
2021/12/03 07:24:55;;;;;;;8.13;6.33;;;;;;;;;;5056406;28;20449;-75
2021/12/03 07:27:25;;;;;;;10.50;9.40;;;;;;;;;;5060193;28;20465;-74
2021/12/03 07:29:53;;;;;;;6.63;6.10;;;;;;;;;;5056712;28;20501;-75
2021/12/03 07:32:34;;;;;;;12.70;10.53;;;;;;;;;;5055669;28;20454;-74
2021/12/03 07:35:02;;;;;;;10.40;8.90;;;;;;;;;;5044216;28;20567;-75
2021/12/03 07:37:37;;;;;;;6.93;6.23;;;;;;;;;;5065870;28;20457;-74
2021/12/03 07:40:10;;;;;;;14.30;11.17;;;;;;;;;;5076965;28;20452;-72
2021/12/03 07:42:37;;;;;;;14.73;10.23;;;;;;;;;;5056071;28;21059;-73
2021/12/03 07:45:16;;;;;;;12.53;10.13;;;;;;;;;;5056150;28;20874;-73
2021/12/03 07:47:59;;;;;;;;;;;;;;;;;;;;;
2021/12/03 07:56:35;;;;;;;9.73;9.00;;;;;;;;;;5051452;28;20449;-74
2021/12/03 07:59:03;;;;;;;10.90;7.93;;;;;;;;;;5071890;28;20465;-74
2021/12/03 08:01:30;;;;;;;11.60;10.70;;;;;;;;;;5074749;28;20459;-74
2021/12/03 08:04:07;;;;;;;15.70;12.40;;;;;;;;;;5074251;28;21090;-73
2021/12/03 08:06:38;;;;;;;11.63;7.60;;;;;;;;;;5077379;28;20451;-73
2021/12/03 08:09:15;;;;;;;11.07;7.83;;;;;;;;;;5075676;28;20487;-74
2021/12/03 08:12:02;;;;;;;15.73;10.60;;;;;;;;;;5074641;28;20857;-74
2021/12/03 08:14:29;;;;;;;13.20;10.40;;;;;;;;;;5075470;28;20539;-73
2021/12/03 08:19:39;;;;;;;18.47;15.23;;;;;;;;;;5073446;28;20440;-72
2021/12/03 08:22:06;;;;;;;11.50;10.30;;;;;;;;;;5074722;28;20448;-72
2021/12/03 08:24:56;;;;;;;13.00;11.83;;;;;;;;;;5055784;28;20453;-72
2021/12/03 08:27:25;;;;;;;24.67;21.40;;;;;;;;;;5055612;28;20553;-74
2021/12/03 08:30:13;;;;;;;17.90;16.37;;;;;;;;;;5072130;28;20485;-74
2021/12/03 08:32:42;;;;;;;19.67;17.77;;;;;;;;;;5077704;28;20555;-74
2021/12/03 08:35:09;;;;;;;31.53;21.10;;;;;;;;;;5079085;28;20726;-73
2021/12/03 08:37:44;;;;;;;21.90;19.60;;;;;;;;;;5075584;28;20444;-72
2021/12/03 08:40:12;;;;;;;19.80;17.93;;;;;;;;;;5058603;28;20457;-72
2021/12/03 08:42:46;;;;;;;17.60;16.00;;;;;;;;;;5062012;28;20540;-72
2021/12/03 08:45:13;;;;;;;21.50;16.80;;;;;;;;;;5057334;28;20475;-71
2021/12/03 08:47:40;;;;;;;22.60;20.20;;;;;;;;;;5056605;28;20556;-72
2021/12/03 08:50:12;;;;;;;12.63;11.40;;;;;;;;;;5057349;28;20571;-73
2021/12/03 08:53:05;;;;;;;16.03;14.50;;;;;;;;;;5058144;28;20492;-72
2021/12/03 08:55:32;;;;;;;17.60;15.93;;;;;;;;;;5058438;28;20465;-72
2021/12/03 08:58:01;;;;;;;10.37;9.50;;;;;;;;;;5072307;28;20903;-72
2021/12/03 09:00:29;;;;;;;13.43;12.10;;;;;;;;;;5066037;28;20543;-72
2021/12/03 09:03:09;;;;;;;16.33;14.80;;;;;;;;;;5074882;28;20449;-70
2021/12/03 09:05:37;;;;;;;9.07;8.10;;;;;;;;;;5056941;28;20453;-72
2021/12/03 09:08:10;;;;;;;13.33;10.93;;;;;;;;;;5057113;28;20888;-72
2021/12/03 09:10:37;;;;;;;16.63;11.27;;;;;;;;;;5069758;28;20485;-71
2021/12/03 09:13:06;;;;;;;10.33;7.07;;;;;;;;;;5071219;28;20543;-72
2021/12/03 09:15:38;;;;;;;13.47;9.47;;;;;;;;;;5057427;28;20460;-71
2021/12/03 09:18:23;;;;;;;13.43;10.90;;;;;;;;;;5067817;28;20831;-72
2021/12/03 09:29:42;;;;;;;14.37;10.13;;;;;;;;;;5050674;28;21061;-73
2021/12/03 09:32:21;;;;;;;15.03;9.00;;;;;;;;;;5079398;28;20460;-73
2021/12/03 09:35:04;;;;;;;11.70;7.87;;;;;;;;;;5066178;28;20463;-72
2021/12/03 09:40:24;;;;;;;22.93;13.90;;;;;;;;;;5058538;28;20489;-71
2021/12/03 09:42:52;;;;;;;20.83;11.00;;;;;;;;;;5059323;28;20988;-72
2021/12/03 09:45:28;;;;;;;18.30;11.27;;;;;;;;;;5058859;28;20460;-73
2021/12/03 09:47:58;;;;;;;15.27;10.83;;;;;;;;;;5059016;28;20472;-73
2021/12/03 09:50:32;;;;;;;20.73;11.43;;;;;;;;;;5063809;28;20480;-73
2021/12/03 09:53:16;;;;;;;13.33;8.83;;;;;;;;;;5078176;28;20448;-72
2021/12/03 09:55:48;;;;;;;15.30;11.03;;;;;;;;;;5075548;28;20498;-72
2021/12/03 09:58:26;;;;;;;14.17;11.47;;;;;;;;;;5073187;28;20461;-72
2021/12/03 10:00:59;;;;;;;15.83;11.33;;;;;;;;;;5061852;28;20472;-73
2021/12/03 10:03:53;;;;;;;16.30;11.43;;;;;;;;;;5077818;28;20488;-70
2021/12/03 10:12:32;;;;;;;17.07;11.60;;;;;;;;;;5045848;28;20486;-72
2021/12/03 10:15:06;;;;;;;14.77;12.00;;;;;;;;;;5077683;28;20464;-72
2021/12/03 10:17:50;;;;;;;17.07;9.30;;;;;;;;;;5078063;28;20467;-73
2021/12/03 10:20:23;;;;;;;19.97;13.53;;;;;;;;;;5078865;28;20456;-73
2021/12/03 10:41:48;;;;;;;13.87;9.70;;;;;;;;;;4970074;28;20863;-73
2021/12/03 10:44:42;;;;;;;17.77;12.70;;;;;;;;;;5038443;28;20458;-72
2021/12/03 10:47:22;;;;;;;15.20;10.47;;;;;;;;;;5045767;28;20553;-71
2021/12/03 10:50:09;;;;;;;29.70;16.80;;;;;;;;;;5037553;28;20517;-71
2021/12/03 10:52:54;;;;;;;23.73;16.53;;;;;;;;;;5036412;28;20493;-72
2021/12/03 13:20:34;;;;;;;14.00;8.93;;;;;;;;;;5033797;28;20446;-74
2021/12/03 14:43:43;;;;;;;20.17;9.33;;;;;;;;;;5077307;28;20431;-71
2021/12/03 14:46:44;;;;;;;15.77;10.10;;;;;;;;;;5077832;28;20468;-70
2021/12/03 14:49:34;;;;;;;13.87;7.90;;;;;;;;;;5069460;28;20469;-73
2021/12/03 14:52:12;;;;;;;16.63;10.70;;;;;;;;;;5058308;28;20469;-73
2021/12/03 14:54:57;;;;;;;17.83;9.87;;;;;;;;;;5058030;28;20468;-72
2021/12/03 14:57:40;;;;;;;17.10;10.67;;;;;;;;;;5058044;28;20716;-72
2021/12/03 15:00:31;;;;;;;14.00;9.67;;;;;;;;;;5058756;28;20467;-71
2021/12/03 15:06:27;;;;;;;20.17;12.43;;;;;;;;;;5094360;28;20555;-72
2021/12/03 15:26:34;;;;;;;23.27;10.80;;;;;;;;;;5047572;28;20432;-72
2021/12/03 15:32:09;;;;;;;8.97;7.43;;;;;;;;;;5067251;28;20420;-71
2021/12/03 15:34:57;;;;;;;9.97;8.20;;;;;;;;;;5093979;28;20709;-72
2021/12/03 15:58:01;;;;;;;12.33;7.70;;;;;;;;;;4991749;28;20432;-73
2021/12/03 16:03:35;;;;;;;13.67;5.93;;;;;;;;;;5060034;28;20430;-72
2021/12/03 16:09:00;;;;;;;8.33;4.90;;;;;;;;;;5091074;28;20432;-71
2021/12/03 16:46:18;;;;;;;15.40;6.63;;;;;;;;;;5078240;28;20471;-70
2021/12/03 16:51:51;;;;;;;10.33;7.00;;;;;;;;;;5065535;28;20436;-72
2021/12/03 16:54:30;;;;;;;5.07;4.30;;;;;;;;;;5097353;28;20845;-72
2021/12/03 16:57:01;;;;;;;13.43;3.90;;;;;;;;;;5096025;28;20481;-72
2021/12/03 16:59:31;;;;;;;15.27;7.43;;;;;;;;;;5087158;28;20700;-72
2021/12/03 17:02:17;;;;;;;9.80;6.20;;;;;;;;;;5074241;28;20452;-71
2021/12/03 17:04:58;;;;;;;8.20;4.17;;;;;;;;;;5060768;28;20785;-71
2021/12/03 17:08:19;;;;;;;8.50;4.90;;;;;;;;;;5076603;28;20452;-72
2021/12/03 17:47:45;;;;;;;4.87;3.10;;;;;;;;;;5075885;28;20720;-70
2021/12/03 17:50:39;;;;;;;20.70;7.90;;;;;;;;;;5075669;28;20452;-71
2021/12/03 17:53:47;;;;;;;8.30;4.67;;;;;;;;;;5074112;28;20950;-73
2021/12/03 17:56:20;;;;;;;8.27;6.17;;;;;;;;;;5053958;28;20451;-72
2021/12/03 17:58:55;;;;;;;3.97;2.50;;;;;;;;;;5059311;28;20457;-71
2021/12/03 18:01:33;;;;;;;8.37;4.90;;;;;;;;;;5077328;28;20444;-71
2021/12/03 18:04:08;;;;;;;5.10;4.47;;;;;;;;;;5075887;28;20493;-72
2021/12/03 18:06:56;;;;;;;8.00;4.13;;;;;;;;;;5076488;28;20449;-73
2021/12/03 18:43:32;;;;;;;5.40;3.07;;;;;;;;;;5075178;28;20411;-72
2021/12/03 18:55:29;;;;;;;7.27;5.70;;;;;;;;;;5072560;28;20421;-72
2021/12/03 18:58:04;;;;;;;4.13;2.83;;;;;;;;;;5075295;28;20460;-73
2021/12/03 19:00:33;;;;;;;3.03;2.73;;;;;;;;;;5075069;28;20448;-72
2021/12/03 19:03:05;;;;;;;4.60;3.60;;;;;;;;;;5074941;28;20466;-72
2021/12/03 19:05:51;;;;;;;5.33;3.83;;;;;;;;;;5076015;28;20775;-72
2021/12/03 19:08:32;;;;;;;4.03;2.50;;;;;;;;;;5074551;28;20535;-72
2021/12/03 19:11:05;;;;;;;12.43;5.17;;;;;;;;;;5075247;28;20849;-72
2021/12/03 19:13:37;;;;;;;6.80;4.57;;;;;;;;;;5074740;28;20453;-71
2021/12/03 19:16:11;;;;;;;7.83;3.67;;;;;;;;;;5075100;28;20861;-72
2021/12/03 19:18:44;;;;;;;7.97;5.33;;;;;;;;;;5075676;28;20524;-72
2021/12/03 19:21:19;;;;;;;4.53;3.17;;;;;;;;;;5075028;28;20464;-71
2021/12/03 19:23:51;;;;;;;3.43;3.00;;;;;;;;;;5074928;28;20452;-73
2021/12/03 19:26:25;;;;;;;5.57;3.47;;;;;;;;;;5075296;28;20484;-73
2021/12/03 19:28:54;;;;;;;3.40;2.60;;;;;;;;;;5076032;28;20794;-72
2021/12/03 19:31:23;;;;;;;6.73;3.90;;;;;;;;;;5075248;28;20471;-72
2021/12/03 19:33:52;;;;;;;6.10;4.37;;;;;;;;;;5075200;28;20452;-73
2021/12/03 19:36:25;;;;;;;5.03;4.10;;;;;;;;;;5075839;28;20492;-72
2021/12/03 19:38:54;;;;;;;4.37;3.67;;;;;;;;;;5076766;28;20451;-72
2021/12/03 19:41:29;;;;;;;3.37;2.43;;;;;;;;;;5076997;28;20528;-72
2021/12/03 19:44:00;;;;;;;5.80;3.60;;;;;;;;;;5074850;28;20459;-72
2021/12/03 19:46:32;;;;;;;5.50;4.30;;;;;;;;;;5074882;28;20480;-73
2021/12/03 19:49:11;;;;;;;6.57;4.00;;;;;;;;;;5076983;28;20531;-73
2021/12/03 19:51:52;;;;;;;3.70;2.93;;;;;;;;;;5078372;28;20452;-72
2021/12/03 19:54:21;;;;;;;4.60;3.13;;;;;;;;;;5079168;28;20547;-73
2021/12/03 19:56:52;;;;;;;3.10;2.43;;;;;;;;;;5080175;28;20464;-72
2021/12/03 19:59:25;;;;;;;6.47;4.50;;;;;;;;;;5081072;28;20480;-73
2021/12/03 20:02:05;;;;;;;4.87;3.93;;;;;;;;;;5078962;28;20545;-72
2021/12/03 20:04:33;;;;;;;4.20;3.03;;;;;;;;;;5079642;28;20467;-71
2021/12/03 20:07:02;;;;;;;7.50;4.83;;;;;;;;;;5079840;28;20460;-73
2021/12/03 20:09:43;;;;;;;5.57;4.10;;;;;;;;;;5078817;28;20444;-73
2021/12/03 20:12:14;;;;;;;4.43;4.00;;;;;;;;;;5080307;28;20460;-72
2021/12/03 20:14:49;;;;;;;8.83;4.37;;;;;;;;;;5079397;28;20464;-72
2021/12/03 20:17:23;;;;;;;11.57;8.43;;;;;;;;;;5079603;28;20453;-72
2021/12/03 20:19:59;;;;;;;8.47;5.00;;;;;;;;;;5079570;28;20855;-72
2021/12/03 20:22:45;;;;;;;8.90;7.50;;;;;;;;;;5078428;28;20456;-73
2021/12/03 20:25:49;;;;;;;11.67;9.40;;;;;;;;;;5079928;28;20476;-72
2021/12/03 20:28:24;;;;;;;6.53;4.97;;;;;;;;;;5078964;28;20480;-72
2021/12/03 20:30:59;;;;;;;9.30;7.10;;;;;;;;;;5079618;28;20757;-73
2021/12/03 20:33:52;;;;;;;6.33;5.70;;;;;;;;;;5079610;28;20487;-73
2021/12/03 20:39:16;;;;;;;5.73;5.10;;;;;;;;;;5043270;28;20426;-72
2021/12/03 20:41:54;;;;;;;5.37;4.80;;;;;;;;;;5059604;28;20603;-73
2021/12/03 20:45:11;;;;;;;6.03;5.20;;;;;;;;;;5066360;28;20448;-72
2021/12/03 21:10:23;;;;;;;5.30;3.50;;;;;;;;;;5057465;28;20457;-71
2021/12/03 21:12:54;;;;;;;9.20;6.23;;;;;;;;;;5056256;28;20912;-70
2021/12/03 21:15:31;;;;;;;6.87;6.10;;;;;;;;;;5057102;28;20457;-72
2021/12/03 21:18:15;;;;;;;7.00;6.30;;;;;;;;;;5056923;28;20548;-71
2021/12/03 21:20:47;;;;;;;3.90;3.40;;;;;;;;;;5056976;28;20481;-72
2021/12/03 21:23:35;;;;;;;3.73;3.30;;;;;;;;;;5057226;28;20609;-71
2021/12/03 21:26:05;;;;;;;11.17;6.40;;;;;;;;;;5057880;28;20485;-72
2021/12/03 21:28:44;;;;;;;10.23;5.73;;;;;;;;;;5057897;28;20811;-72
2021/12/03 21:31:20;;;;;;;4.47;4.00;;;;;;;;;;5058157;28;20445;-72
2021/12/03 21:39:24;;;;;;;4.70;3.80;;;;;;;;;;5057764;28;20760;-71
2021/12/03 21:42:00;;;;;;;12.93;7.60;;;;;;;;;;5057911;28;20879;-72
2021/12/03 21:44:28;;;;;;;7.97;6.17;;;;;;;;;;5058347;28;20456;-71
2021/12/03 21:46:57;;;;;;;7.97;6.60;;;;;;;;;;5064973;28;20477;-71
2021/12/03 21:49:28;;;;;;;15.00;7.00;;;;;;;;;;5077972;28;20468;-72
2021/12/03 21:51:57;;;;;;;8.07;5.20;;;;;;;;;;5078079;28;20449;-71
2021/12/03 21:54:25;;;;;;;8.60;6.10;;;;;;;;;;5078871;28;20506;-72
2021/12/03 21:57:00;;;;;;;7.53;6.80;;;;;;;;;;5077836;28;20483;-72
2021/12/03 21:59:28;;;;;;;7.40;6.70;;;;;;;;;;5079378;28;20861;-72
2021/12/03 22:01:58;;;;;;;11.63;7.10;;;;;;;;;;5078679;28;20467;-72
2021/12/03 22:04:26;;;;;;;11.10;8.23;;;;;;;;;;5077985;28;20471;-71
2021/12/03 22:06:54;;;;;;;8.60;5.43;;;;;;;;;;5078075;28;20713;-71
2021/12/03 22:09:25;;;;;;;5.77;4.77;;;;;;;;;;5077923;28;20914;-72
2021/12/03 22:11:55;;;;;;;6.70;6.10;;;;;;;;;;5077807;28;20444;-72
2021/12/03 22:14:26;;;;;;;8.87;7.23;;;;;;;;;;5076346;28;20568;-72
2021/12/03 22:16:55;;;;;;;4.60;4.20;;;;;;;;;;5077071;28;20440;-72
2021/12/03 22:19:24;;;;;;;7.87;5.70;;;;;;;;;;5075238;28;20467;-72
2021/12/03 22:21:52;;;;;;;7.50;6.77;;;;;;;;;;5076662;28;20448;-72
2021/12/03 22:24:20;;;;;;;9.80;8.40;;;;;;;;;;5076382;28;20448;-72
2021/12/03 22:26:51;;;;;;;12.07;8.97;;;;;;;;;;5075801;28;20603;-71
2021/12/03 22:29:19;;;;;;;8.80;6.83;;;;;;;;;;5076343;28;20459;-71
2021/12/03 22:31:47;;;;;;;7.80;5.20;;;;;;;;;;5076950;28;20856;-71
2021/12/03 22:34:15;;;;;;;9.27;6.20;;;;;;;;;;5075793;28;20480;-70
2021/12/03 22:36:44;;;;;;;6.30;4.63;;;;;;;;;;5076107;28;20458;-72
2021/12/03 22:39:12;;;;;;;8.27;6.80;;;;;;;;;;5075808;28;20459;-72
2021/12/03 22:41:42;;;;;;;7.73;6.70;;;;;;;;;;5075486;28;20725;-71
2021/12/03 22:44:10;;;;;;;5.73;4.23;;;;;;;;;;5076650;28;20470;-71
2021/12/03 22:46:46;;;;;;;8.33;6.43;;;;;;;;;;5075768;28;20507;-71
2021/12/03 22:49:34;;;;;;;11.73;9.30;;;;;;;;;;5076541;28;20460;-71
2021/12/03 22:52:09;;;;;;;9.90;8.07;;;;;;;;;;5077083;28;20456;-70